createdAt,value
2022-11-05T00:00:38.393Z,3.96
2022-11-05T00:03:24.243Z,3.88
2022-11-05T00:06:11.159Z,3.82
2022-11-05T00:09:08.227Z,3.84
2022-11-05T00:11:54.093Z,3.91
2022-11-05T00:14:40.189Z,3.92
2022-11-05T00:17:07.449Z,3.88
2022-11-05T00:19:34.596Z,3.83
2022-11-05T00:22:20.370Z,3.78
2022-11-05T00:25:06.167Z,3.73
2022-11-05T00:27:34.432Z,3.69
2022-11-05T00:30:04.963Z,3.72
2022-11-05T00:32:33.053Z,3.79
2022-11-05T00:35:00.181Z,3.82
2022-11-05T00:37:28.160Z,3.80
2022-11-05T00:39:55.198Z,3.76
2022-11-05T00:42:41.087Z,3.73
2022-11-05T00:45:08.953Z,3.68
2022-11-05T00:47:54.842Z,3.65
2022-11-05T00:50:22.312Z,3.66
2022-11-05T00:52:56.240Z,3.71
2022-11-05T00:55:29.942Z,3.72
2022-11-05T00:57:57.470Z,3.69
2022-11-05T01:00:25.349Z,3.66
2022-11-05T01:02:52.542Z,3.61
2022-11-05T01:05:20.048Z,3.58
2022-11-05T01:07:47.193Z,3.54
2022-11-05T01:10:14.143Z,3.57
2022-11-05T01:12:41.187Z,3.63
2022-11-05T01:15:09.404Z,3.65
2022-11-05T01:17:36.405Z,3.64
2022-11-05T01:20:03.860Z,3.62
2022-11-05T01:22:30.732Z,3.60
2022-11-05T01:24:57.753Z,3.57
2022-11-05T01:27:24.928Z,3.55
2022-11-05T01:29:51.830Z,3.57
2022-11-05T01:32:18.829Z,3.64
2022-11-05T01:34:45.733Z,3.65
2022-11-05T01:37:13.930Z,3.64
2022-11-05T01:39:40.954Z,3.61
2022-11-05T01:42:15.970Z,3.56
2022-11-05T01:45:03.412Z,3.49
2022-11-05T01:47:59.952Z,3.41
2022-11-05T01:50:49.467Z,3.33
2022-11-05T01:53:51.183Z,3.37
2022-11-05T01:56:23.870Z,3.41
2022-11-05T01:58:53.990Z,3.39
2022-11-05T02:01:21.235Z,3.36
2022-11-05T02:03:49.103Z,3.31
2022-11-05T02:06:16.770Z,3.27
2022-11-05T02:08:55.492Z,3.24
2022-11-05T02:11:22.531Z,3.21
2022-11-05T02:13:49.679Z,3.25
2022-11-05T02:16:39.562Z,3.31
2022-11-05T02:19:41.153Z,3.32
2022-11-05T02:22:33.180Z,3.29
2022-11-05T02:25:15.557Z,3.26
2022-11-05T02:28:15.478Z,3.21
2022-11-05T02:31:15.230Z,3.15
2022-11-05T02:33:44.287Z,3.08
2022-11-05T02:36:35.807Z,3.10
2022-11-05T02:39:27.332Z,3.17
2022-11-05T02:42:19.338Z,3.18
2022-11-05T02:44:54.126Z,3.15
2022-11-05T02:47:39.462Z,3.12
2022-11-05T02:50:12.651Z,3.07
2022-11-05T02:52:58.848Z,3.04
2022-11-05T02:55:40.882Z,2.98
2022-11-05T02:58:08.095Z,2.94
2022-11-05T03:00:51.257Z,2.98
2022-11-05T03:03:18.376Z,3.04
2022-11-05T03:05:59.980Z,3.05
2022-11-05T03:08:58.243Z,3.01
2022-11-05T03:11:27.070Z,2.96
2022-11-05T03:13:56.744Z,2.91
2022-11-05T03:16:37.404Z,2.88
2022-11-05T03:19:13.646Z,2.84
2022-11-05T03:22:02.017Z,2.88
2022-11-05T03:24:34.793Z,2.95
2022-11-05T03:27:07.507Z,2.97
2022-11-05T03:29:39.807Z,2.94
2022-11-05T03:32:06.808Z,2.89
2022-11-05T03:34:37.120Z,2.86
2022-11-05T03:37:04.259Z,2.82
2022-11-05T03:39:37.553Z,2.79
2022-11-05T03:47:40.583Z,3.00
2022-11-05T03:50:40.931Z,3.00
2022-11-05T03:53:14.153Z,3.00
2022-11-05T03:55:59.355Z,2.99
2022-11-05T03:58:26.474Z,2.98
2022-11-05T04:00:53.447Z,2.97
2022-11-05T04:03:20.464Z,3.03
2022-11-05T04:06:07.582Z,3.12
2022-11-05T04:08:53.373Z,3.17
2022-11-05T04:11:39.183Z,3.17
2022-11-05T04:14:06.202Z,3.15
2022-11-05T04:16:51.885Z,3.11
2022-11-05T04:19:38.812Z,3.07
2022-11-05T04:22:24.595Z,3.05
2022-11-05T04:24:51.644Z,3.13
2022-11-05T04:27:18.786Z,3.21
2022-11-05T04:30:04.774Z,3.26
2022-11-05T04:32:31.732Z,3.27
2022-11-05T04:34:58.775Z,3.26
2022-11-05T04:37:25.919Z,3.25
2022-11-05T04:39:53.275Z,3.22
2022-11-05T04:42:20.320Z,3.21
2022-11-05T04:44:47.367Z,3.26
2022-11-05T04:47:14.310Z,3.34
2022-11-05T04:49:41.257Z,3.41
2022-11-05T04:52:08.300Z,3.43
2022-11-05T04:54:35.585Z,3.43
2022-11-05T04:57:02.496Z,3.44
2022-11-05T04:59:29.568Z,3.44
2022-11-05T05:01:56.735Z,3.44
2022-11-05T05:04:23.944Z,3.51
2022-11-05T05:06:50.912Z,3.60
2022-11-05T05:09:18.179Z,3.66
2022-11-05T05:11:45.611Z,3.66
2022-11-05T05:14:12.888Z,3.67
2022-11-05T05:16:40.507Z,3.66
2022-11-05T05:19:07.591Z,3.65
2022-11-05T05:21:41.266Z,3.64
2022-11-05T05:24:16.202Z,3.71
2022-11-05T05:26:45.194Z,3.81
2022-11-05T05:30:14.797Z,3.91
2022-11-05T05:32:41.888Z,3.91
2022-11-05T05:35:09.815Z,3.92
2022-11-05T05:37:36.964Z,3.92
2022-11-05T05:40:04.216Z,3.92
2022-11-05T05:42:31.262Z,3.98
2022-11-05T05:44:58.245Z,4.09
2022-11-05T05:47:25.372Z,4.17
2022-11-05T05:49:52.513Z,4.20
2022-11-05T05:52:19.447Z,4.22
2022-11-05T05:54:46.395Z,4.24
2022-11-05T05:57:13.437Z,4.24
2022-11-05T05:59:40.382Z,4.25
2022-11-05T06:02:07.434Z,4.30
2022-11-05T06:04:34.913Z,4.38
2022-11-05T06:07:01.910Z,4.44
2022-11-05T06:09:29.202Z,4.47
2022-11-05T06:11:56.230Z,4.50
2022-11-05T06:14:23.542Z,4.49
2022-11-05T06:16:53.295Z,4.49
2022-11-05T06:19:22.722Z,4.50
2022-11-05T06:21:49.850Z,4.57
2022-11-05T06:24:17.024Z,4.69
2022-11-05T06:26:45.316Z,4.78
2022-11-05T06:29:12.318Z,4.85
2022-11-05T06:31:39.473Z,4.90
2022-11-05T06:34:06.512Z,4.95
2022-11-05T06:36:33.868Z,5.00
2022-11-05T06:39:00.957Z,5.08
2022-11-05T06:41:28.069Z,5.22
2022-11-05T06:43:55.116Z,5.39
2022-11-05T06:46:24.625Z,5.52
2022-11-05T06:48:51.778Z,5.62
2022-11-05T06:51:19.220Z,5.68
2022-11-05T06:53:46.171Z,5.73
2022-11-05T06:56:13.216Z,5.79
2022-11-05T06:58:40.161Z,5.84
2022-11-05T07:01:08.857Z,5.93
2022-11-05T07:03:37.059Z,5.97
2022-11-05T07:06:04.608Z,5.98
2022-11-05T07:08:35.408Z,5.96
2022-11-05T07:11:02.455Z,5.94
2022-11-05T07:13:29.396Z,6.01
2022-11-05T07:15:57.000Z,6.09
2022-11-05T07:18:24.211Z,6.11
2022-11-05T07:20:51.160Z,6.11
2022-11-05T07:23:18.205Z,6.13
2022-11-05T07:25:45.355Z,6.12
2022-11-05T07:28:12.365Z,6.19
2022-11-05T07:30:39.321Z,6.31
2022-11-05T07:33:06.225Z,6.37
2022-11-05T07:35:33.245Z,6.41
2022-11-05T07:38:00.093Z,6.45
2022-11-05T07:40:27.990Z,6.50
2022-11-05T07:42:56.557Z,6.58
2022-11-05T07:45:23.705Z,6.70
2022-11-05T07:47:52.229Z,6.82
2022-11-05T07:50:20.693Z,6.90
2022-11-05T07:52:48.753Z,6.97
2022-11-05T07:55:16.060Z,7.04
2022-11-05T07:57:46.619Z,7.19
2022-11-05T08:00:15.387Z,7.38
2022-11-05T08:02:42.834Z,7.52
2022-11-05T08:05:10.072Z,7.57
2022-11-05T08:07:36.970Z,7.63
2022-11-05T08:10:04.423Z,7.72
2022-11-05T08:12:32.060Z,7.90
2022-11-05T08:14:59.033Z,8.09
2022-11-05T08:17:25.939Z,8.23
2022-11-05T08:19:52.866Z,8.32
2022-11-05T08:22:20.029Z,8.39
2022-11-05T08:24:46.971Z,8.43
2022-11-05T08:27:13.964Z,8.50
2022-11-05T08:29:40.971Z,8.61
2022-11-05T08:32:07.874Z,8.73
2022-11-05T08:34:34.687Z,8.80
2022-11-05T08:37:02.112Z,8.81
2022-11-05T08:39:29.145Z,8.87
2022-11-05T08:41:56.068Z,8.92
2022-11-05T08:44:23.027Z,8.93
2022-11-05T08:46:50.116Z,9.00
2022-11-05T08:49:17.002Z,9.12
2022-11-05T08:51:44.716Z,9.22
2022-11-05T08:54:11.690Z,9.28
2022-11-05T08:56:38.699Z,9.29
2022-11-05T08:59:05.627Z,9.29
2022-11-05T09:01:33.579Z,9.29
2022-11-05T09:04:00.496Z,9.40
2022-11-05T09:06:27.354Z,9.54
2022-11-05T09:08:54.280Z,9.65
2022-11-05T09:11:21.275Z,9.74
2022-11-05T09:13:48.134Z,9.79
2022-11-05T09:16:25.475Z,9.81
2022-11-05T09:18:52.591Z,9.83
2022-11-05T09:21:19.605Z,9.87
2022-11-05T09:23:46.858Z,9.96
2022-11-05T09:26:13.831Z,10.10
2022-11-05T09:28:40.866Z,10.24
2022-11-05T09:31:08.639Z,10.36
2022-11-05T09:33:37.050Z,10.45
2022-11-05T09:36:04.569Z,10.51
2022-11-05T09:38:32.371Z,10.53
2022-11-05T09:41:02.391Z,10.58
2022-11-05T09:43:38.548Z,10.69
2022-11-05T09:46:23.460Z,10.85
2022-11-05T09:48:53.887Z,10.96
2022-11-05T09:51:23.876Z,11.04
2022-11-05T09:53:51.612Z,11.11
2022-11-05T09:56:24.250Z,11.15
2022-11-05T09:58:54.656Z,11.20
2022-11-05T10:01:24.478Z,11.28
2022-11-05T10:03:54.073Z,11.43
2022-11-05T10:06:23.073Z,11.64
2022-11-05T10:08:57.660Z,11.87
2022-11-05T10:11:45.983Z,12.08
2022-11-05T10:14:18.882Z,12.25
2022-11-05T10:16:47.963Z,12.33
2022-11-05T10:19:16.620Z,12.35
2022-11-05T10:26:00.869Z,12.28
2022-11-05T10:31:53.930Z,12.15
2022-11-05T10:34:22.042Z,12.15
2022-11-05T10:36:49.047Z,12.22
2022-11-05T10:39:17.840Z,12.31
2022-11-05T10:41:57.577Z,12.38
2022-11-05T10:44:30.563Z,12.35
2022-11-05T10:47:07.652Z,12.28
2022-11-05T10:49:39.739Z,12.22
2022-11-05T10:52:24.988Z,12.17
2022-11-05T10:54:53.895Z,12.13
2022-11-05T10:57:47.407Z,12.14
2022-11-05T11:00:17.095Z,12.22
2022-11-05T11:02:51.071Z,12.24
2022-11-05T11:05:24.043Z,12.28
2022-11-05T11:08:01.703Z,12.36
2022-11-05T11:10:29.120Z,12.46
2022-11-05T11:12:56.514Z,12.59
2022-11-05T11:15:28.722Z,12.76
2022-11-05T11:17:56.350Z,12.93
2022-11-05T11:20:26.291Z,13.01
2022-11-05T11:22:59.370Z,13.03
2022-11-05T11:25:28.280Z,13.06
2022-11-05T11:27:55.169Z,13.04
2022-11-05T11:30:22.143Z,12.99
2022-11-05T11:32:49.108Z,12.93
2022-11-05T11:35:23.684Z,12.93
2022-11-05T11:37:52.829Z,12.96
2022-11-05T11:40:33.610Z,12.98
2022-11-05T11:43:02.850Z,12.97
2022-11-05T11:45:47.047Z,13.02
2022-11-05T11:48:19.407Z,13.14
2022-11-05T11:50:47.443Z,13.20
2022-11-05T11:53:21.558Z,13.22
2022-11-05T11:56:05.242Z,13.23
2022-11-05T11:58:39.518Z,13.27
2022-11-05T12:01:11.761Z,13.32
2022-11-05T12:03:47.716Z,13.33
2022-11-05T12:06:29.188Z,13.35
2022-11-05T12:09:01.992Z,13.44
2022-11-05T12:11:39.970Z,13.55
2022-11-05T12:14:13.179Z,13.63
2022-11-05T12:16:48.044Z,13.67
2022-11-05T12:19:39.692Z,13.64
2022-11-05T12:22:18.988Z,13.59
2022-11-05T12:24:55.659Z,13.55
2022-11-05T12:27:30.138Z,13.45
2022-11-05T12:30:01.948Z,13.39
2022-11-05T12:32:44.365Z,13.35
2022-11-05T12:35:36.321Z,13.36
2022-11-05T12:38:12.841Z,13.41
2022-11-05T12:40:48.943Z,13.41
2022-11-05T12:43:40.836Z,13.41
2022-11-05T12:46:14.007Z,13.40
2022-11-05T12:48:43.901Z,13.41
2022-11-05T12:51:20.764Z,13.42
2022-11-05T12:53:56.407Z,13.40
2022-11-05T12:56:34.692Z,13.42
2022-11-05T12:59:22.428Z,13.44
2022-11-05T13:01:58.134Z,13.43
2022-11-05T13:04:42.045Z,13.46
2022-11-05T13:07:10.508Z,13.51
2022-11-05T13:09:44.970Z,13.52
2022-11-05T13:12:16.156Z,13.51
2022-11-05T13:14:54.643Z,13.48
2022-11-05T13:17:26.340Z,13.51
2022-11-05T13:20:16.039Z,13.54
2022-11-05T13:22:49.823Z,13.55
2022-11-05T13:25:22.055Z,13.55
2022-11-05T13:27:52.058Z,13.54
2022-11-05T13:30:26.689Z,13.51
2022-11-05T13:33:00.433Z,13.50
2022-11-05T13:35:37.830Z,13.50
2022-11-05T13:38:26.675Z,13.47
2022-11-05T13:41:03.986Z,13.49
2022-11-05T13:44:20.103Z,13.53
2022-11-05T13:47:21.161Z,13.59
2022-11-05T13:50:26.652Z,13.65
2022-11-05T13:53:15.194Z,13.68
2022-11-05T13:56:09.673Z,13.72
2022-11-05T13:58:48.676Z,13.75
2022-11-05T14:01:16.037Z,13.85
2022-11-05T14:03:51.046Z,13.94
2022-11-05T14:06:30.073Z,13.96
2022-11-05T14:09:01.278Z,13.91
2022-11-05T14:11:41.986Z,13.89
2022-11-05T14:14:21.388Z,13.82
2022-11-05T14:17:12.897Z,13.74
2022-11-05T14:20:15.682Z,13.74
2022-11-05T14:22:42.834Z,13.77
2022-11-05T14:25:36.244Z,13.74
2022-11-05T14:28:03.395Z,13.71
2022-11-05T14:30:45.972Z,13.69
2022-11-05T14:33:26.621Z,13.67
2022-11-05T14:36:13.311Z,13.68
2022-11-05T14:38:47.043Z,13.73
2022-11-05T14:41:14.026Z,13.77
2022-11-05T14:43:45.494Z,13.82
2022-11-05T14:46:12.629Z,13.90
2022-11-05T14:48:44.595Z,13.92
2022-11-05T14:51:30.526Z,13.92
2022-11-05T14:54:24.317Z,13.89
2022-11-05T14:56:59.332Z,13.86
2022-11-05T14:59:31.699Z,13.88
2022-11-05T15:02:05.365Z,13.92
2022-11-05T15:04:36.654Z,13.93
2022-11-05T15:07:08.525Z,13.91
2022-11-05T15:09:57.315Z,13.89
2022-11-05T15:12:24.969Z,13.88
2022-11-05T15:15:28.163Z,13.93
2022-11-05T15:18:31.614Z,13.94
2022-11-05T15:20:59.490Z,13.87
2022-11-05T15:23:29.517Z,13.80
2022-11-05T15:26:11.812Z,13.70
2022-11-05T15:28:42.704Z,13.58
2022-11-05T15:31:15.217Z,13.55
2022-11-05T15:33:43.328Z,13.55
2022-11-05T15:36:10.949Z,13.53
2022-11-05T15:38:56.662Z,13.51
2022-11-05T15:41:34.710Z,13.47
2022-11-05T15:44:02.880Z,13.41
2022-11-05T15:46:30.007Z,13.36
2022-11-05T15:49:04.420Z,13.36
2022-11-05T15:51:31.367Z,13.37
2022-11-05T15:56:58.071Z,13.26
2022-11-05T15:59:26.139Z,13.19
2022-11-05T16:02:04.023Z,13.11
2022-11-05T16:04:32.622Z,13.06
2022-11-05T16:07:01.909Z,13.06
2022-11-05T16:09:31.305Z,13.06
2022-11-05T16:12:19.982Z,13.01
2022-11-05T16:15:08.315Z,12.93
2022-11-05T16:17:54.693Z,12.84
2022-11-05T16:20:21.900Z,12.75
2022-11-05T16:22:53.806Z,12.70
2022-11-05T16:25:27.559Z,12.70
2022-11-05T16:27:55.795Z,12.72
2022-11-05T16:30:25.341Z,12.70
2022-11-05T16:32:54.652Z,12.66
2022-11-05T16:35:23.592Z,12.62
2022-11-05T16:37:55.207Z,12.58
2022-11-05T16:40:25.174Z,12.52
2022-11-05T16:42:55.446Z,12.54
2022-11-05T16:45:26.321Z,12.58
2022-11-05T16:47:53.671Z,12.57
2022-11-05T16:50:24.053Z,12.55
2022-11-05T16:52:54.427Z,12.52
2022-11-05T16:55:21.410Z,12.48
2022-11-05T16:57:53.679Z,12.45
2022-11-05T17:00:21.086Z,12.46
2022-11-05T17:02:48.380Z,12.51
2022-11-05T17:05:29.217Z,12.51
2022-11-05T17:07:56.578Z,12.48
2022-11-05T17:10:24.769Z,12.45
2022-11-05T17:12:51.690Z,12.41
2022-11-05T17:15:23.649Z,12.37
2022-11-05T17:17:51.178Z,12.37
2022-11-05T17:20:42.074Z,12.41
2022-11-05T17:23:12.597Z,12.41
2022-11-05T17:25:40.452Z,12.39
2022-11-05T17:28:07.610Z,12.36
2022-11-05T17:30:40.280Z,12.34
2022-11-05T17:33:15.187Z,12.30
2022-11-05T17:35:42.575Z,12.33
2022-11-05T17:38:10.171Z,12.37
2022-11-05T17:40:37.337Z,12.40
2022-11-05T17:43:04.370Z,12.40
2022-11-05T17:48:05.531Z,12.38
2022-11-05T17:50:32.893Z,12.37
2022-11-05T17:52:59.932Z,12.39
2022-11-05T17:55:27.085Z,12.37
2022-11-05T17:57:54.439Z,12.33
2022-11-05T18:07:52.060Z,12.43
2022-11-05T18:10:19.517Z,12.40
2022-11-05T18:12:47.574Z,12.34
2022-11-05T18:15:15.233Z,12.24
2022-11-05T18:17:42.282Z,12.14
2022-11-05T18:20:17.363Z,12.06
2022-11-05T18:22:46.410Z,12.02
2022-11-05T18:25:14.289Z,12.02
2022-11-05T18:27:44.822Z,11.99
2022-11-05T18:30:16.976Z,11.92
2022-11-05T18:32:44.943Z,11.86
2022-11-05T18:35:13.529Z,11.80
2022-11-05T18:37:40.675Z,11.74
2022-11-05T18:40:08.336Z,11.73
2022-11-05T18:42:35.382Z,11.77
2022-11-05T18:45:02.337Z,11.76
2022-11-05T18:47:34.240Z,11.71
2022-11-05T18:50:06.454Z,11.66
2022-11-05T18:52:34.020Z,11.60
2022-11-05T18:55:01.168Z,11.54
2022-11-05T18:57:31.285Z,11.55
2022-11-05T19:00:00.797Z,11.58
2022-11-05T19:02:30.900Z,11.58
2022-11-05T19:05:27.578Z,11.55
2022-11-05T19:07:45.189Z,11.50
2022-11-05T19:10:15.601Z,11.46
2022-11-05T19:12:43.208Z,11.43
2022-11-05T19:15:13.753Z,11.45
2022-11-05T19:17:40.941Z,11.48
2022-11-05T19:20:09.729Z,11.48
2022-11-05T19:22:36.880Z,11.46
2022-11-05T19:25:05.035Z,11.42
2022-11-05T19:27:34.350Z,11.40
2022-11-05T19:30:01.395Z,11.42
2022-11-05T19:32:28.418Z,11.48
2022-11-05T19:34:55.464Z,11.49
2022-11-05T19:37:22.893Z,11.47
2022-11-05T19:39:52.892Z,11.44
2022-11-05T19:42:25.268Z,11.40
2022-11-05T19:45:44.606Z,11.36
2022-11-05T19:48:19.368Z,11.42
2022-11-05T19:50:46.957Z,11.46
2022-11-05T19:53:14.001Z,11.46
2022-11-05T19:55:41.453Z,11.43
2022-11-05T19:58:09.170Z,11.41
2022-11-05T20:00:39.543Z,11.37
2022-11-05T20:03:06.580Z,11.39
2022-11-05T20:05:36.232Z,11.43
2022-11-05T20:26:22.406Z,12.33
2022-11-05T20:28:49.488Z,12.47
2022-11-05T20:31:17.331Z,12.36
2022-11-05T20:33:45.416Z,12.21
2022-11-05T20:36:19.418Z,12.09
2022-11-05T20:38:48.271Z,12.02
2022-11-05T20:41:15.646Z,11.99
2022-11-05T20:43:43.029Z,11.93
2022-11-05T20:46:14.112Z,11.85
2022-11-05T20:48:45.081Z,11.78
2022-11-05T20:51:14.193Z,11.70
2022-11-05T20:53:43.337Z,11.61
2022-11-05T20:56:22.223Z,11.58
2022-11-05T20:58:50.477Z,11.58
2022-11-05T21:01:17.822Z,11.55
2022-11-05T21:03:47.340Z,11.50
2022-11-05T21:06:14.925Z,11.46
2022-11-05T21:08:57.004Z,11.39
2022-11-05T21:11:49.535Z,11.33
2022-11-05T21:14:19.755Z,11.35
2022-11-05T21:16:46.803Z,11.38
2022-11-05T21:19:15.386Z,11.37
2022-11-05T21:21:42.468Z,11.34
2022-11-05T21:24:09.592Z,11.31
2022-11-05T21:26:37.038Z,11.31
2022-11-05T21:29:04.187Z,11.38
2022-11-05T21:31:37.479Z,11.46
2022-11-05T21:34:04.732Z,11.51
2022-11-05T21:36:33.120Z,11.50
2022-11-05T21:39:00.360Z,11.48
2022-11-05T21:41:30.392Z,11.43
2022-11-05T21:43:57.670Z,11.37
2022-11-05T21:46:24.587Z,11.35
2022-11-05T21:48:51.949Z,11.37
2022-11-05T21:51:39.562Z,11.35
2022-11-05T21:54:25.307Z,11.29
2022-11-05T21:57:11.474Z,11.23
2022-11-05T21:59:48.263Z,11.15
2022-11-05T22:02:23.151Z,11.08
2022-11-05T22:04:52.400Z,11.08
2022-11-05T22:07:23.953Z,11.11
2022-11-05T22:09:50.948Z,11.11
2022-11-05T22:12:19.634Z,11.09
2022-11-05T22:14:46.710Z,11.05
2022-11-05T22:17:15.063Z,11.01
2022-11-05T22:19:41.970Z,11.05
2022-11-05T22:22:09.660Z,11.10
2022-11-05T22:24:39.106Z,11.10
2022-11-05T22:27:10.688Z,11.07
2022-11-05T22:29:37.669Z,11.05
2022-11-05T22:32:04.977Z,11.03
2022-11-05T22:34:31.868Z,11.07
2022-11-05T22:36:59.338Z,11.12
2022-11-05T22:39:26.329Z,11.13
2022-11-05T22:41:55.407Z,11.13
2022-11-05T22:44:23.526Z,11.12
2022-11-05T22:46:50.496Z,11.10
2022-11-05T22:49:17.519Z,11.14
2022-11-05T22:51:49.274Z,11.19
2022-11-05T22:54:17.078Z,11.21
2022-11-05T22:56:44.701Z,11.20
2022-11-05T22:59:13.706Z,11.17
2022-11-05T23:01:41.441Z,11.16
2022-11-05T23:04:08.941Z,11.21
2022-11-05T23:06:55.951Z,11.27
2022-11-05T23:09:50.113Z,11.32
2022-11-05T23:12:27.812Z,11.33
2022-11-05T23:14:58.046Z,11.32
2022-11-05T23:17:47.218Z,11.32
2022-11-05T23:20:36.156Z,11.39
2022-11-05T23:23:27.782Z,11.47
2022-11-05T23:25:58.718Z,11.49
2022-11-05T23:28:25.765Z,11.50
2022-11-05T23:31:26.091Z,11.50
2022-11-05T23:39:59.632Z,11.67
2022-11-05T23:42:45.726Z,11.66
2022-11-05T23:45:41.955Z,11.63
2022-11-05T23:48:17.241Z,11.69
2022-11-05T23:50:56.138Z,11.76
2022-11-05T23:53:23.475Z,11.79
2022-11-05T23:55:50.637Z,11.81
2022-11-05T23:58:17.978Z,11.82
